Sun Valley, CA

7:34 AM PST on February 06, 2016 (GMT -0800)
Burbank-Glendale-Pasadena | | Change Station
CLOSE
Current Station
Airport
Location: Burbank,
Elevation: 774 ft
Nearby Weather Stations
Active Advisory: Wind Advisory

Elev 774 ft 34.20 °N, 118.36 °W | Updated 41 minutes ago

Clear
Clear
44 °F
Feels Like 44 °F
N
0
Wind Variable Wind from North

Today
High -- | Low -- °F
--% Chance of Precip.
Yesterday
High -- | Low -- °F
Precip. -- in
Pressure 30.25 in
Visibility 10.0 miles
Clouds Clear
Dew Point 25 °F
Humidity 47%
Rainfall 0.00 in
Snow Depth Not available.
6:47 AM 5:28 PM
Waning Crescent, 5% visible
METAR KBUR 061453Z 00000KT 10SM CLR 07/M04 A3026 RMK AO2 SLP241 T00671039 55003 $
Pressure 30.25 in
Visibility 10.0 miles
Clouds Clear
Dew Point 25 °F
Humidity 47%
Rainfall 0.00 in
Snow Depth Not available.
6:47 AM 5:28 PM
Waning Crescent, 5% visible
METAR KBUR 061453Z 00000KT 10SM CLR 07/M04 A3026 RMK AO2 SLP241 T00671039 55003 $

10-Day Weather Forecast

Almanac

Astronomy

Feb. 06, 2016 Rise Set
Actual Time
Civil Twilight
Nautical Twilight
Astronomical Twilight
Moon
Length of Visible Light
Length of Day
Tomorrow will be .
, % of the Moon is Illuminated

Today's Extremes

State Highs State Lows

Community

WunderPhotos

Upload Photos

1,890,987 photos uploaded!

WunderBlog® & News

Nearby

Air Quality

  Air Quality AQ Index Pollutant
Not available.

Snow Depth

Station Depth Elevation

Earthquake Activity

City Distance Mag. Time & Date
Minimum magnitude displayed is 2.5.

Coastal Water Temperatures

Place Temperature

Stations

Nearby Weather Stations

Station Location Temp. Windchill Dew Point Humidity Wind Precip. Elev Updated Type
                   

Watches & Warnings

Wind Advisory
Issued: 3:02 AM PST Feb. 6, 2016 – National Weather Service

... Wind Advisory remains in effect until 2 PM PST this
afternoon...

* winds... areas of northeast winds 20 to 30 with gusts to 45
mph. Locations most prone to Santa Ana winds include the
eastern portion of Ventura County... the Santa Clarita valley...
the western San Fernando Valley... and the Santa Monica
Mountains.

* Impacts... gusty winds will make driving difficult... especially
for drivers of high profile vehicles.

Precautionary/preparedness actions...

When driving... use extra caution. Be prepared for sudden gusty
cross winds.